Tuesday, February 20, 2018, 9:32 AM GMT
Back to Local

CXBO, Beauport CS, Que.

Location: , , Canada Lat: 46.833
Local Time: 9:32 AM GMT ( 9:32 GMT) Lon: -71.2
Time Zone: GMT Elev: 32 ft

Show me the last for .
Show Coded

Time T Td Feel RH Dir Speed Gust Alt SLP Vis Weather Sky Remarks
2018-02-20 09:00 - - - 0 40° 2 - - - 0 None
2018-02-20 08:00 - - - 0 170° 3 - - - 0 None
2018-02-20 07:00 - - - 0 120° 1 - - - 0 1-hr Precip Total: 0.06"
2018-02-20 06:00 - - - 0 310° 2 - - - 0 None
2018-02-20 05:00 - - - 0 180° 5 - - - 0 None
2018-02-20 04:00 - - - 0 210° 3 - - - 0 None
2018-02-20 03:00 - - - 0 260° 5 - - - 0 None
2018-02-20 02:00 - - - 0 260° 7 - - - 0 None
2018-02-20 01:00 - - - 0 250° 7 - - - 0 None
2018-02-20 00:00 - - - 0 240° 6 - - - 0 None
2018-02-19 23:00 - - - 0 220° 5 - - - 0 None
2018-02-19 22:00 - - - 0 260° 3 - - - 0 None
2018-02-19 21:00 - - - 0 330° 2 - - - 0 None
2018-02-19 20:00 - - - 0 90° 2 - - - 0 None
2018-02-19 19:00 - - - 0 120° 2 - - - 0 None
2018-02-19 18:00 - - - 0 70° 2 - - - 0 None
2018-02-19 17:00 - - - 0 100° 2 - - - 0 None
2018-02-19 16:00 - - - 0 30° 2 - - - 0 None
2018-02-19 15:00 - - - 0 360° 5 - - - 0 None
2018-02-19 14:00 - - - 0 20° 2 - - - 0 None
2018-02-19 13:00 - - - 0 310° 2 - - - 0 None
2018-02-19 12:00 - - - 0 350° 1 - - - 0 None
2018-02-19 11:00 - - - 0 310° 2 - - - 0 None
2018-02-19 10:00 - - - 0 270° 2 - - - 0 None

Support USWX by starting your Amazon purchase here.